sensor_id;sensor_type;location;lat;lon;timestamp;P1;durP1;ratioP1;P2;durP2;ratioP2
25437;SDS011;13364;49.084;9.978;2022-12-11T00:00:23;42.92;;;21.98;;
25437;SDS011;13364;49.084;9.978;2022-12-11T00:02:50;44.92;;;23.05;;
25437;SDS011;13364;49.084;9.978;2022-12-11T00:05:17;45.92;;;22.42;;
25437;SDS011;13364;49.084;9.978;2022-12-11T00:07:44;45.30;;;22.63;;
25437;SDS011;13364;49.084;9.978;2022-12-11T00:10:12;42.75;;;21.27;;
25437;SDS011;13364;49.084;9.978;2022-12-11T00:12:39;39.00;;;20.33;;
25437;SDS011;13364;49.084;9.978;2022-12-11T00:15:06;44.38;;;21.85;;
25437;SDS011;13364;49.084;9.978;2022-12-11T00:17:34;42.80;;;23.35;;
25437;SDS011;13364;49.084;9.978;2022-12-11T00:20:01;43.83;;;22.98;;
25437;SDS011;13364;49.084;9.978;2022-12-11T00:22:29;42.03;;;21.98;;
25437;SDS011;13364;49.084;9.978;2022-12-11T00:24:56;41.72;;;21.73;;
25437;SDS011;13364;49.084;9.978;2022-12-11T00:27:23;43.38;;;21.90;;
25437;SDS011;13364;49.084;9.978;2022-12-11T00:29:50;44.22;;;20.60;;
25437;SDS011;13364;49.084;9.978;2022-12-11T00:32:17;34.85;;;18.83;;
25437;SDS011;13364;49.084;9.978;2022-12-11T00:34:44;27.25;;;14.68;;
25437;SDS011;13364;49.084;9.978;2022-12-11T00:37:11;41.25;;;21.00;;
25437;SDS011;13364;49.084;9.978;2022-12-11T00:39:38;39.22;;;20.23;;
25437;SDS011;13364;49.084;9.978;2022-12-11T00:42:05;34.25;;;18.63;;
25437;SDS011;13364;49.084;9.978;2022-12-11T00:44:33;37.85;;;18.98;;
25437;SDS011;13364;49.084;9.978;2022-12-11T00:47:00;39.65;;;19.30;;
25437;SDS011;13364;49.084;9.978;2022-12-11T00:49:28;39.25;;;20.77;;
25437;SDS011;13364;49.084;9.978;2022-12-11T00:51:55;40.88;;;20.90;;
25437;SDS011;13364;49.084;9.978;2022-12-11T00:54:22;40.38;;;21.08;;
25437;SDS011;13364;49.084;9.978;2022-12-11T00:56:49;40.72;;;21.17;;
25437;SDS011;13364;49.084;9.978;2022-12-11T00:59:16;39.05;;;19.25;;
25437;SDS011;13364;49.084;9.978;2022-12-11T01:01:43;41.20;;;20.92;;
25437;SDS011;13364;49.084;9.978;2022-12-11T01:04:10;38.88;;;18.10;;
25437;SDS011;13364;49.084;9.978;2022-12-11T01:06:37;37.97;;;19.58;;
25437;SDS011;13364;49.084;9.978;2022-12-11T01:09:05;39.80;;;21.15;;
25437;SDS011;13364;49.084;9.978;2022-12-11T01:11:50;35.58;;;18.35;;
25437;SDS011;13364;49.084;9.978;2022-12-11T01:14:17;34.28;;;18.58;;
25437;SDS011;13364;49.084;9.978;2022-12-11T01:19:18;35.00;;;17.90;;
25437;SDS011;13364;49.084;9.978;2022-12-11T01:21:45;35.17;;;18.67;;
25437;SDS011;13364;49.084;9.978;2022-12-11T01:24:12;36.97;;;19.83;;
25437;SDS011;13364;49.084;9.978;2022-12-11T01:26:39;42.72;;;20.15;;
25437;SDS011;13364;49.084;9.978;2022-12-11T01:29:05;36.28;;;19.13;;
25437;SDS011;13364;49.084;9.978;2022-12-11T01:31:33;38.72;;;18.70;;
25437;SDS011;13364;49.084;9.978;2022-12-11T01:34:00;36.97;;;18.90;;
25437;SDS011;13364;49.084;9.978;2022-12-11T01:36:27;34.13;;;18.73;;
25437;SDS011;13364;49.084;9.978;2022-12-11T01:38:54;41.20;;;19.95;;
25437;SDS011;13364;49.084;9.978;2022-12-11T01:41:21;34.05;;;17.67;;
25437;SDS011;13364;49.084;9.978;2022-12-11T01:44:05;37.47;;;18.90;;
25437;SDS011;13364;49.084;9.978;2022-12-11T01:46:52;38.13;;;18.92;;
25437;SDS011;13364;49.084;9.978;2022-12-11T01:49:20;36.50;;;17.42;;
25437;SDS011;13364;49.084;9.978;2022-12-11T01:51:54;37.67;;;19.92;;
25437;SDS011;13364;49.084;9.978;2022-12-11T01:54:27;35.08;;;18.60;;
25437;SDS011;13364;49.084;9.978;2022-12-11T01:57:04;40.03;;;20.38;;
25437;SDS011;13364;49.084;9.978;2022-12-11T01:59:34;39.37;;;20.13;;
25437;SDS011;13364;49.084;9.978;2022-12-11T02:02:08;42.30;;;21.15;;
25437;SDS011;13364;49.084;9.978;2022-12-11T02:04:37;43.42;;;21.08;;
25437;SDS011;13364;49.084;9.978;2022-12-11T02:07:06;42.38;;;21.90;;
25437;SDS011;13364;49.084;9.978;2022-12-11T02:09:34;37.92;;;18.75;;
25437;SDS011;13364;49.084;9.978;2022-12-11T02:17:48;40.95;;;20.83;;
25437;SDS011;13364;49.084;9.978;2022-12-11T02:20:24;30.02;;;16.02;;
25437;SDS011;13364;49.084;9.978;2022-12-11T02:28:18;32.80;;;17.58;;
25437;SDS011;13364;49.084;9.978;2022-12-11T02:30:54;41.67;;;20.15;;
25437;SDS011;13364;49.084;9.978;2022-12-11T02:33:33;40.55;;;20.88;;
25437;SDS011;13364;49.084;9.978;2022-12-11T02:36:23;38.22;;;19.45;;
25437;SDS011;13364;49.084;9.978;2022-12-11T02:38:54;36.08;;;20.67;;
25437;SDS011;13364;49.084;9.978;2022-12-11T02:41:24;34.85;;;18.48;;
25437;SDS011;13364;49.084;9.978;2022-12-11T02:43:54;35.33;;;18.70;;
25437;SDS011;13364;49.084;9.978;2022-12-11T02:46:23;37.72;;;18.77;;
25437;SDS011;13364;49.084;9.978;2022-12-11T02:48:51;33.92;;;18.75;;
25437;SDS011;13364;49.084;9.978;2022-12-11T02:51:21;39.72;;;18.98;;
25437;SDS011;13364;49.084;9.978;2022-12-11T02:53:57;35.00;;;18.77;;
25437;SDS011;13364;49.084;9.978;2022-12-11T02:56:29;32.45;;;17.63;;
25437;SDS011;13364;49.084;9.978;2022-12-11T02:59:03;30.83;;;16.48;;
25437;SDS011;13364;49.084;9.978;2022-12-11T03:01:34;30.90;;;17.48;;
25437;SDS011;13364;49.084;9.978;2022-12-11T03:04:01;32.25;;;17.58;;
25437;SDS011;13364;49.084;9.978;2022-12-11T03:06:34;34.03;;;17.67;;
25437;SDS011;13364;49.084;9.978;2022-12-11T03:09:05;31.92;;;16.92;;
25437;SDS011;13364;49.084;9.978;2022-12-11T03:11:33;31.08;;;16.75;;
25437;SDS011;13364;49.084;9.978;2022-12-11T03:14:00;15.20;;;8.90;;
25437;SDS011;13364;49.084;9.978;2022-12-11T03:16:34;26.17;;;14.10;;
25437;SDS011;13364;49.084;9.978;2022-12-11T03:19:07;33.63;;;17.08;;
25437;SDS011;13364;49.084;9.978;2022-12-11T03:24:21;32.78;;;16.88;;
25437;SDS011;13364;49.084;9.978;2022-12-11T03:30:15;23.35;;;12.90;;
25437;SDS011;13364;49.084;9.978;2022-12-11T03:32:55;30.02;;;16.48;;
25437;SDS011;13364;49.084;9.978;2022-12-11T03:35:39;28.70;;;15.50;;
25437;SDS011;13364;49.084;9.978;2022-12-11T03:38:10;31.25;;;16.15;;
25437;SDS011;13364;49.084;9.978;2022-12-11T03:40:45;33.30;;;15.98;;
25437;SDS011;13364;49.084;9.978;2022-12-11T03:43:17;23.05;;;12.15;;
25437;SDS011;13364;49.084;9.978;2022-12-11T03:45:45;17.25;;;10.00;;
25437;SDS011;13364;49.084;9.978;2022-12-11T03:48:15;16.35;;;7.90;;
25437;SDS011;13364;49.084;9.978;2022-12-11T03:50:44;24.73;;;13.73;;
25437;SDS011;13364;49.084;9.978;2022-12-11T03:55:41;15.88;;;8.55;;
25437;SDS011;13364;49.084;9.978;2022-12-11T03:58:08;22.45;;;11.43;;
25437;SDS011;13364;49.084;9.978;2022-12-11T04:00:35;22.33;;;11.38;;
25437;SDS011;13364;49.084;9.978;2022-12-11T04:03:03;21.10;;;11.07;;
25437;SDS011;13364;49.084;9.978;2022-12-11T04:05:41;17.67;;;10.77;;
25437;SDS011;13364;49.084;9.978;2022-12-11T04:10:47;19.92;;;9.50;;
25437;SDS011;13364;49.084;9.978;2022-12-11T04:13:35;19.37;;;9.43;;
25437;SDS011;13364;49.084;9.978;2022-12-11T04:16:03;18.58;;;9.50;;
25437;SDS011;13364;49.084;9.978;2022-12-11T04:18:30;25.45;;;12.15;;
25437;SDS011;13364;49.084;9.978;2022-12-11T04:21:16;20.92;;;11.55;;
25437;SDS011;13364;49.084;9.978;2022-12-11T04:24:05;21.95;;;11.88;;
25437;SDS011;13364;49.084;9.978;2022-12-11T04:26:45;19.83;;;10.48;;
25437;SDS011;13364;49.084;9.978;2022-12-11T04:29:13;22.48;;;12.88;;
25437;SDS011;13364;49.084;9.978;2022-12-11T04:31:40;20.35;;;12.02;;
25437;SDS011;13364;49.084;9.978;2022-12-11T04:34:07;22.27;;;12.40;;
25437;SDS011;13364;49.084;9.978;2022-12-11T04:36:35;23.38;;;13.13;;
25437;SDS011;13364;49.084;9.978;2022-12-11T04:39:03;24.13;;;13.18;;
25437;SDS011;13364;49.084;9.978;2022-12-11T04:43:59;18.50;;;11.00;;
25437;SDS011;13364;49.084;9.978;2022-12-11T04:46:25;21.10;;;12.13;;
25437;SDS011;13364;49.084;9.978;2022-12-11T04:48:53;22.10;;;12.98;;
25437;SDS011;13364;49.084;9.978;2022-12-11T04:51:23;23.33;;;13.65;;
25437;SDS011;13364;49.084;9.978;2022-12-11T04:53:51;22.73;;;12.95;;
25437;SDS011;13364;49.084;9.978;2022-12-11T04:56:18;23.70;;;12.70;;
25437;SDS011;13364;49.084;9.978;2022-12-11T04:58:46;21.10;;;12.50;;
25437;SDS011;13364;49.084;9.978;2022-12-11T05:01:15;21.70;;;12.75;;
25437;SDS011;13364;49.084;9.978;2022-12-11T05:03:44;22.55;;;12.65;;
25437;SDS011;13364;49.084;9.978;2022-12-11T05:06:11;23.50;;;13.25;;
25437;SDS011;13364;49.084;9.978;2022-12-11T05:08:40;23.25;;;13.45;;
25437;SDS011;13364;49.084;9.978;2022-12-11T05:11:09;29.02;;;15.07;;
25437;SDS011;13364;49.084;9.978;2022-12-11T05:16:05;24.85;;;13.63;;
25437;SDS011;13364;49.084;9.978;2022-12-11T05:18:36;19.20;;;11.65;;
25437;SDS011;13364;49.084;9.978;2022-12-11T05:21:04;26.42;;;12.13;;
25437;SDS011;13364;49.084;9.978;2022-12-11T05:23:33;23.23;;;12.30;;
25437;SDS011;13364;49.084;9.978;2022-12-11T05:26:02;23.98;;;11.55;;
25437;SDS011;13364;49.084;9.978;2022-12-11T05:28:33;18.48;;;10.40;;
25437;SDS011;13364;49.084;9.978;2022-12-11T05:31:12;24.80;;;12.00;;
25437;SDS011;13364;49.084;9.978;2022-12-11T05:33:41;20.23;;;11.15;;
25437;SDS011;13364;49.084;9.978;2022-12-11T05:40:20;23.25;;;11.88;;
25437;SDS011;13364;49.084;9.978;2022-12-11T05:42:47;20.98;;;12.18;;
25437;SDS011;13364;49.084;9.978;2022-12-11T05:45:14;24.58;;;14.50;;
25437;SDS011;13364;49.084;9.978;2022-12-11T05:47:41;23.35;;;12.55;;
25437;SDS011;13364;49.084;9.978;2022-12-11T05:50:08;29.17;;;14.20;;
25437;SDS011;13364;49.084;9.978;2022-12-11T05:52:36;24.92;;;12.85;;
25437;SDS011;13364;49.084;9.978;2022-12-11T05:55:03;27.13;;;13.65;;
25437;SDS011;13364;49.084;9.978;2022-12-11T05:57:30;24.60;;;13.57;;
25437;SDS011;13364;49.084;9.978;2022-12-11T05:59:57;20.15;;;10.75;;
25437;SDS011;13364;49.084;9.978;2022-12-11T06:02:24;23.88;;;13.18;;
25437;SDS011;13364;49.084;9.978;2022-12-11T06:04:52;20.95;;;12.13;;
25437;SDS011;13364;49.084;9.978;2022-12-11T06:07:19;24.90;;;14.38;;
25437;SDS011;13364;49.084;9.978;2022-12-11T06:09:46;24.95;;;13.05;;
25437;SDS011;13364;49.084;9.978;2022-12-11T06:12:13;23.13;;;13.32;;
25437;SDS011;13364;49.084;9.978;2022-12-11T06:14:40;22.55;;;12.43;;
25437;SDS011;13364;49.084;9.978;2022-12-11T06:17:07;21.67;;;12.75;;
25437;SDS011;13364;49.084;9.978;2022-12-11T06:19:34;24.30;;;12.65;;
25437;SDS011;13364;49.084;9.978;2022-12-11T06:22:02;22.65;;;13.43;;
25437;SDS011;13364;49.084;9.978;2022-12-11T06:24:29;22.88;;;14.15;;
25437;SDS011;13364;49.084;9.978;2022-12-11T06:26:56;23.55;;;12.50;;
25437;SDS011;13364;49.084;9.978;2022-12-11T06:29:23;25.15;;;14.18;;
25437;SDS011;13364;49.084;9.978;2022-12-11T06:31:50;24.80;;;13.30;;
25437;SDS011;13364;49.084;9.978;2022-12-11T06:34:18;22.50;;;13.45;;
25437;SDS011;13364;49.084;9.978;2022-12-11T06:36:45;23.92;;;13.82;;
25437;SDS011;13364;49.084;9.978;2022-12-11T06:39:12;25.20;;;14.02;;
25437;SDS011;13364;49.084;9.978;2022-12-11T06:41:39;25.27;;;13.07;;
25437;SDS011;13364;49.084;9.978;2022-12-11T06:44:06;22.88;;;12.23;;
25437;SDS011;13364;49.084;9.978;2022-12-11T06:46:33;32.47;;;15.88;;
25437;SDS011;13364;49.084;9.978;2022-12-11T06:49:00;31.88;;;17.60;;
25437;SDS011;13364;49.084;9.978;2022-12-11T06:51:27;34.25;;;17.67;;
25437;SDS011;13364;49.084;9.978;2022-12-11T06:53:55;27.90;;;15.02;;
25437;SDS011;13364;49.084;9.978;2022-12-11T06:56:22;29.02;;;15.43;;
25437;SDS011;13364;49.084;9.978;2022-12-11T06:58:50;27.05;;;14.02;;
25437;SDS011;13364;49.084;9.978;2022-12-11T07:01:18;28.00;;;14.50;;
25437;SDS011;13364;49.084;9.978;2022-12-11T07:03:57;28.40;;;15.95;;
25437;SDS011;13364;49.084;9.978;2022-12-11T07:06:25;27.23;;;14.70;;
25437;SDS011;13364;49.084;9.978;2022-12-11T07:08:53;31.77;;;15.45;;
25437;SDS011;13364;49.084;9.978;2022-12-11T07:11:21;26.98;;;15.15;;
25437;SDS011;13364;49.084;9.978;2022-12-11T07:13:48;31.88;;;15.90;;
25437;SDS011;13364;49.084;9.978;2022-12-11T07:16:16;30.23;;;16.08;;
25437;SDS011;13364;49.084;9.978;2022-12-11T07:18:48;31.60;;;16.03;;
25437;SDS011;13364;49.084;9.978;2022-12-11T07:21:16;36.10;;;17.52;;
25437;SDS011;13364;49.084;9.978;2022-12-11T07:23:44;39.30;;;18.20;;
25437;SDS011;13364;49.084;9.978;2022-12-11T07:26:13;35.90;;;16.52;;
25437;SDS011;13364;49.084;9.978;2022-12-11T07:28:42;32.35;;;18.05;;
25437;SDS011;13364;49.084;9.978;2022-12-11T07:31:14;29.70;;;16.67;;
25437;SDS011;13364;49.084;9.978;2022-12-11T07:33:43;31.17;;;16.83;;
25437;SDS011;13364;49.084;9.978;2022-12-11T07:36:11;29.23;;;15.40;;
25437;SDS011;13364;49.084;9.978;2022-12-11T07:38:39;27.23;;;15.40;;
25437;SDS011;13364;49.084;9.978;2022-12-11T07:41:07;28.60;;;15.88;;
25437;SDS011;13364;49.084;9.978;2022-12-11T07:43:38;27.77;;;14.65;;
25437;SDS011;13364;49.084;9.978;2022-12-11T07:46:07;32.65;;;16.08;;
25437;SDS011;13364;49.084;9.978;2022-12-11T07:48:40;32.35;;;16.48;;
25437;SDS011;13364;49.084;9.978;2022-12-11T07:53:42;28.52;;;16.02;;
25437;SDS011;13364;49.084;9.978;2022-12-11T07:56:11;31.88;;;16.50;;
25437;SDS011;13364;49.084;9.978;2022-12-11T07:58:38;26.77;;;15.60;;
25437;SDS011;13364;49.084;9.978;2022-12-11T08:01:10;34.47;;;16.73;;
25437;SDS011;13364;49.084;9.978;2022-12-11T08:03:41;32.90;;;17.00;;
25437;SDS011;13364;49.084;9.978;2022-12-11T08:06:09;34.65;;;15.95;;
25437;SDS011;13364;49.084;9.978;2022-12-11T08:08:36;27.27;;;14.02;;
25437;SDS011;13364;49.084;9.978;2022-12-11T08:11:04;33.25;;;15.63;;
25437;SDS011;13364;49.084;9.978;2022-12-11T08:13:33;23.90;;;13.40;;
25437;SDS011;13364;49.084;9.978;2022-12-11T08:16:03;31.77;;;15.80;;
25437;SDS011;13364;49.084;9.978;2022-12-11T08:18:32;34.97;;;15.98;;
25437;SDS011;13364;49.084;9.978;2022-12-11T08:21:06;27.63;;;14.30;;
25437;SDS011;13364;49.084;9.978;2022-12-11T08:23:36;31.80;;;16.30;;
25437;SDS011;13364;49.084;9.978;2022-12-11T08:26:05;30.67;;;15.35;;
25437;SDS011;13364;49.084;9.978;2022-12-11T08:28:33;26.83;;;14.57;;
25437;SDS011;13364;49.084;9.978;2022-12-11T08:31:05;38.80;;;16.17;;
25437;SDS011;13364;49.084;9.978;2022-12-11T08:33:34;25.58;;;12.52;;
25437;SDS011;13364;49.084;9.978;2022-12-11T08:36:06;32.42;;;14.48;;
25437;SDS011;13364;49.084;9.978;2022-12-11T08:38:34;22.35;;;11.13;;
25437;SDS011;13364;49.084;9.978;2022-12-11T08:41:16;29.60;;;14.52;;
25437;SDS011;13364;49.084;9.978;2022-12-11T08:43:45;34.90;;;13.55;;
25437;SDS011;13364;49.084;9.978;2022-12-11T08:46:13;27.15;;;14.07;;
25437;SDS011;13364;49.084;9.978;2022-12-11T08:48:41;24.73;;;12.23;;
25437;SDS011;13364;49.084;9.978;2022-12-11T08:51:13;12.00;;;7.95;;
25437;SDS011;13364;49.084;9.978;2022-12-11T08:53:47;29.77;;;14.93;;
25437;SDS011;13364;49.084;9.978;2022-12-11T08:56:17;39.15;;;18.85;;
25437;SDS011;13364;49.084;9.978;2022-12-11T08:58:50;31.65;;;16.58;;
25437;SDS011;13364;49.084;9.978;2022-12-11T09:01:20;28.33;;;14.73;;
25437;SDS011;13364;49.084;9.978;2022-12-11T09:03:49;27.75;;;13.40;;
25437;SDS011;13364;49.084;9.978;2022-12-11T09:06:18;25.85;;;13.32;;
25437;SDS011;13364;49.084;9.978;2022-12-11T09:11:20;25.17;;;12.85;;
25437;SDS011;13364;49.084;9.978;2022-12-11T09:13:49;26.73;;;12.90;;
25437;SDS011;13364;49.084;9.978;2022-12-11T09:16:17;29.23;;;13.70;;
25437;SDS011;13364;49.084;9.978;2022-12-11T09:21:43;29.50;;;14.10;;
25437;SDS011;13364;49.084;9.978;2022-12-11T09:24:11;26.52;;;13.35;;
25437;SDS011;13364;49.084;9.978;2022-12-11T09:26:39;23.38;;;12.85;;
25437;SDS011;13364;49.084;9.978;2022-12-11T09:29:06;32.88;;;14.02;;
25437;SDS011;13364;49.084;9.978;2022-12-11T09:31:35;35.28;;;15.85;;
25437;SDS011;13364;49.084;9.978;2022-12-11T09:34:03;23.00;;;12.33;;
25437;SDS011;13364;49.084;9.978;2022-12-11T09:36:32;30.67;;;13.70;;
25437;SDS011;13364;49.084;9.978;2022-12-11T09:39:01;33.95;;;17.45;;
25437;SDS011;13364;49.084;9.978;2022-12-11T09:46:45;27.73;;;13.23;;
25437;SDS011;13364;49.084;9.978;2022-12-11T09:54:32;32.72;;;15.68;;
25437;SDS011;13364;49.084;9.978;2022-12-11T09:57:34;33.42;;;15.13;;
25437;SDS011;13364;49.084;9.978;2022-12-11T10:00:18;30.10;;;16.33;;
25437;SDS011;13364;49.084;9.978;2022-12-11T10:02:59;32.40;;;16.35;;
25437;SDS011;13364;49.084;9.978;2022-12-11T10:08:44;29.85;;;13.15;;
25437;SDS011;13364;49.084;9.978;2022-12-11T10:11:45;28.83;;;12.75;;
25437;SDS011;13364;49.084;9.978;2022-12-11T10:17:12;29.25;;;14.93;;
25437;SDS011;13364;49.084;9.978;2022-12-11T10:19:46;18.92;;;9.75;;
25437;SDS011;13364;49.084;9.978;2022-12-11T10:22:19;28.85;;;14.40;;
25437;SDS011;13364;49.084;9.978;2022-12-11T10:27:37;29.13;;;15.18;;
25437;SDS011;13364;49.084;9.978;2022-12-11T10:30:13;26.02;;;13.13;;
25437;SDS011;13364;49.084;9.978;2022-12-11T10:35:50;31.08;;;14.48;;
25437;SDS011;13364;49.084;9.978;2022-12-11T10:38:31;31.25;;;15.07;;
25437;SDS011;13364;49.084;9.978;2022-12-11T10:41:04;28.80;;;14.00;;
25437;SDS011;13364;49.084;9.978;2022-12-11T10:43:44;31.42;;;14.48;;
25437;SDS011;13364;49.084;9.978;2022-12-11T10:46:17;27.58;;;14.43;;
25437;SDS011;13364;49.084;9.978;2022-12-11T10:48:50;30.02;;;13.20;;
25437;SDS011;13364;49.084;9.978;2022-12-11T10:51:20;24.38;;;11.60;;
25437;SDS011;13364;49.084;9.978;2022-12-11T10:53:54;28.77;;;13.70;;
25437;SDS011;13364;49.084;9.978;2022-12-11T10:56:31;28.85;;;13.20;;
25437;SDS011;13364;49.084;9.978;2022-12-11T10:58:59;31.83;;;14.27;;
25437;SDS011;13364;49.084;9.978;2022-12-11T11:01:27;28.88;;;14.38;;
25437;SDS011;13364;49.084;9.978;2022-12-11T11:04:04;30.98;;;14.68;;
25437;SDS011;13364;49.084;9.978;2022-12-11T11:06:39;28.38;;;14.48;;
25437;SDS011;13364;49.084;9.978;2022-12-11T11:09:25;28.60;;;15.23;;
25437;SDS011;13364;49.084;9.978;2022-12-11T11:11:59;27.17;;;14.00;;
25437;SDS011;13364;49.084;9.978;2022-12-11T11:14:33;28.90;;;14.45;;
25437;SDS011;13364;49.084;9.978;2022-12-11T11:17:00;29.75;;;14.68;;
25437;SDS011;13364;49.084;9.978;2022-12-11T11:19:31;26.20;;;13.05;;
25437;SDS011;13364;49.084;9.978;2022-12-11T11:24:34;28.30;;;15.00;;
25437;SDS011;13364;49.084;9.978;2022-12-11T11:29:54;33.33;;;14.15;;
25437;SDS011;13364;49.084;9.978;2022-12-11T11:32:30;27.70;;;15.13;;
25437;SDS011;13364;49.084;9.978;2022-12-11T11:37:39;30.48;;;16.13;;
25437;SDS011;13364;49.084;9.978;2022-12-11T11:40:15;31.83;;;14.75;;
25437;SDS011;13364;49.084;9.978;2022-12-11T11:45:42;26.55;;;14.20;;
25437;SDS011;13364;49.084;9.978;2022-12-11T11:48:35;31.10;;;15.32;;
25437;SDS011;13364;49.084;9.978;2022-12-11T11:51:20;34.60;;;15.68;;
25437;SDS011;13364;49.084;9.978;2022-12-11T11:54:02;28.30;;;14.52;;
25437;SDS011;13364;49.084;9.978;2022-12-11T11:56:36;26.98;;;12.88;;
25437;SDS011;13364;49.084;9.978;2022-12-11T12:02:08;28.30;;;13.75;;
25437;SDS011;13364;49.084;9.978;2022-12-11T12:04:40;27.00;;;13.13;;
25437;SDS011;13364;49.084;9.978;2022-12-11T12:10:15;25.05;;;13.00;;
25437;SDS011;13364;49.084;9.978;2022-12-11T12:13:06;26.45;;;13.50;;
25437;SDS011;13364;49.084;9.978;2022-12-11T12:27:45;34.85;;;17.20;;
25437;SDS011;13364;49.084;9.978;2022-12-11T12:30:30;42.95;;;19.15;;
25437;SDS011;13364;49.084;9.978;2022-12-11T12:35:53;49.72;;;23.70;;
25437;SDS011;13364;49.084;9.978;2022-12-11T12:44:05;52.07;;;24.70;;
25437;SDS011;13364;49.084;9.978;2022-12-11T12:49:27;57.33;;;24.02;;
25437;SDS011;13364;49.084;9.978;2022-12-11T12:51:56;55.38;;;25.80;;
25437;SDS011;13364;49.084;9.978;2022-12-11T12:54:25;58.53;;;27.35;;
25437;SDS011;13364;49.084;9.978;2022-12-11T12:56:54;52.15;;;23.27;;
25437;SDS011;13364;49.084;9.978;2022-12-11T12:59:25;54.95;;;25.90;;
25437;SDS011;13364;49.084;9.978;2022-12-11T13:01:57;52.28;;;24.27;;
25437;SDS011;13364;49.084;9.978;2022-12-11T13:04:34;49.38;;;23.00;;
25437;SDS011;13364;49.084;9.978;2022-12-11T13:07:24;47.20;;;20.98;;
25437;SDS011;13364;49.084;9.978;2022-12-11T13:13:03;57.72;;;22.90;;
25437;SDS011;13364;49.084;9.978;2022-12-11T13:24:59;47.67;;;21.48;;
25437;SDS011;13364;49.084;9.978;2022-12-11T13:27:36;41.67;;;20.60;;
25437;SDS011;13364;49.084;9.978;2022-12-11T13:35:31;46.03;;;21.70;;
25437;SDS011;13364;49.084;9.978;2022-12-11T13:38:06;37.33;;;16.98;;
25437;SDS011;13364;49.084;9.978;2022-12-11T13:40:45;46.35;;;21.20;;
25437;SDS011;13364;49.084;9.978;2022-12-11T13:43:19;41.88;;;20.83;;
25437;SDS011;13364;49.084;9.978;2022-12-11T13:45:54;46.45;;;20.33;;
25437;SDS011;13364;49.084;9.978;2022-12-11T13:48:26;49.65;;;21.60;;
25437;SDS011;13364;49.084;9.978;2022-12-11T13:51:03;45.08;;;21.05;;
25437;SDS011;13364;49.084;9.978;2022-12-11T13:53:31;52.50;;;23.23;;
25437;SDS011;13364;49.084;9.978;2022-12-11T13:56:03;52.72;;;21.85;;
25437;SDS011;13364;49.084;9.978;2022-12-11T14:04:16;41.67;;;19.90;;
25437;SDS011;13364;49.084;9.978;2022-12-11T14:09:43;42.75;;;19.92;;
25437;SDS011;13364;49.084;9.978;2022-12-11T14:15:03;40.55;;;18.20;;
25437;SDS011;13364;49.084;9.978;2022-12-11T14:20:54;36.08;;;17.27;;
25437;SDS011;13364;49.084;9.978;2022-12-11T14:30:51;41.30;;;19.08;;
25437;SDS011;13364;49.084;9.978;2022-12-11T14:33:21;41.97;;;19.15;;
25437;SDS011;13364;49.084;9.978;2022-12-11T14:35:49;36.08;;;18.67;;
25437;SDS011;13364;49.084;9.978;2022-12-11T14:42:51;37.90;;;18.60;;
25437;SDS011;13364;49.084;9.978;2022-12-11T14:48:24;42.53;;;17.83;;
25437;SDS011;13364;49.084;9.978;2022-12-11T15:10:39;43.63;;;20.38;;
25437;SDS011;13364;49.084;9.978;2022-12-11T15:13:23;41.08;;;19.15;;
25437;SDS011;13364;49.084;9.978;2022-12-11T15:15:50;46.60;;;19.50;;
25437;SDS011;13364;49.084;9.978;2022-12-11T15:20:56;43.78;;;21.38;;
25437;SDS011;13364;49.084;9.978;2022-12-11T15:27:03;39.80;;;19.52;;
25437;SDS011;13364;49.084;9.978;2022-12-11T15:37:50;39.63;;;18.27;;
25437;SDS011;13364;49.084;9.978;2022-12-11T15:42:52;36.38;;;17.17;;
25437;SDS011;13364;49.084;9.978;2022-12-11T15:45:21;39.92;;;17.75;;
25437;SDS011;13364;49.084;9.978;2022-12-11T15:47:53;33.72;;;16.45;;
25437;SDS011;13364;49.084;9.978;2022-12-11T15:52:53;37.40;;;18.23;;
25437;SDS011;13364;49.084;9.978;2022-12-11T15:55:39;38.20;;;18.15;;
25437;SDS011;13364;49.084;9.978;2022-12-11T15:58:07;33.05;;;17.17;;
25437;SDS011;13364;49.084;9.978;2022-12-11T16:00:40;33.33;;;16.60;;
25437;SDS011;13364;49.084;9.978;2022-12-11T16:03:11;41.08;;;18.70;;
25437;SDS011;13364;49.084;9.978;2022-12-11T16:05:43;34.53;;;18.33;;
25437;SDS011;13364;49.084;9.978;2022-12-11T16:08:15;36.60;;;17.50;;
25437;SDS011;13364;49.084;9.978;2022-12-11T16:10:44;38.67;;;18.83;;
25437;SDS011;13364;49.084;9.978;2022-12-11T16:13:12;38.90;;;19.63;;
25437;SDS011;13364;49.084;9.978;2022-12-11T16:15:41;39.13;;;17.92;;
25437;SDS011;13364;49.084;9.978;2022-12-11T16:18:11;38.95;;;19.15;;
25437;SDS011;13364;49.084;9.978;2022-12-11T16:20:41;42.70;;;19.13;;
25437;SDS011;13364;49.084;9.978;2022-12-11T16:23:10;38.00;;;17.35;;
25437;SDS011;13364;49.084;9.978;2022-12-11T16:25:39;43.97;;;19.52;;
25437;SDS011;13364;49.084;9.978;2022-12-11T16:28:08;33.90;;;17.00;;
25437;SDS011;13364;49.084;9.978;2022-12-11T16:30:37;33.25;;;15.30;;
25437;SDS011;13364;49.084;9.978;2022-12-11T16:33:06;34.90;;;17.20;;
25437;SDS011;13364;49.084;9.978;2022-12-11T16:35:38;24.60;;;12.45;;
25437;SDS011;13364;49.084;9.978;2022-12-11T16:38:05;35.33;;;16.42;;
25437;SDS011;13364;49.084;9.978;2022-12-11T16:40:33;35.00;;;16.65;;
25437;SDS011;13364;49.084;9.978;2022-12-11T16:43:00;35.88;;;16.90;;
25437;SDS011;13364;49.084;9.978;2022-12-11T16:45:29;34.60;;;16.77;;
25437;SDS011;13364;49.084;9.978;2022-12-11T16:47:56;39.22;;;15.80;;
25437;SDS011;13364;49.084;9.978;2022-12-11T16:50:23;32.03;;;16.23;;
25437;SDS011;13364;49.084;9.978;2022-12-11T16:52:51;32.92;;;15.55;;
25437;SDS011;13364;49.084;9.978;2022-12-11T16:55:18;30.15;;;15.55;;
25437;SDS011;13364;49.084;9.978;2022-12-11T16:57:47;34.40;;;17.27;;
25437;SDS011;13364;49.084;9.978;2022-12-11T17:00:14;34.35;;;16.73;;
25437;SDS011;13364;49.084;9.978;2022-12-11T17:02:42;33.10;;;15.05;;
25437;SDS011;13364;49.084;9.978;2022-12-11T17:05:09;30.50;;;14.52;;
25437;SDS011;13364;49.084;9.978;2022-12-11T17:07:36;33.28;;;16.23;;
25437;SDS011;13364;49.084;9.978;2022-12-11T17:10:04;33.88;;;15.32;;
25437;SDS011;13364;49.084;9.978;2022-12-11T17:12:31;28.35;;;14.93;;
25437;SDS011;13364;49.084;9.978;2022-12-11T17:14:58;32.08;;;14.20;;
25437;SDS011;13364;49.084;9.978;2022-12-11T17:17:25;33.28;;;16.25;;
25437;SDS011;13364;49.084;9.978;2022-12-11T17:19:54;38.22;;;15.32;;
25437;SDS011;13364;49.084;9.978;2022-12-11T17:22:21;33.88;;;14.73;;
25437;SDS011;13364;49.084;9.978;2022-12-11T17:24:48;33.60;;;16.80;;
25437;SDS011;13364;49.084;9.978;2022-12-11T17:27:15;33.92;;;15.60;;
25437;SDS011;13364;49.084;9.978;2022-12-11T17:29:42;29.92;;;13.60;;
25437;SDS011;13364;49.084;9.978;2022-12-11T17:32:09;32.30;;;14.90;;
25437;SDS011;13364;49.084;9.978;2022-12-11T17:34:36;29.40;;;13.30;;
25437;SDS011;13364;49.084;9.978;2022-12-11T17:37:04;30.77;;;13.18;;
25437;SDS011;13364;49.084;9.978;2022-12-11T17:39:31;25.17;;;12.80;;
25437;SDS011;13364;49.084;9.978;2022-12-11T17:41:58;26.42;;;13.10;;
25437;SDS011;13364;49.084;9.978;2022-12-11T17:44:26;20.73;;;11.13;;
25437;SDS011;13364;49.084;9.978;2022-12-11T17:46:56;25.60;;;13.48;;
25437;SDS011;13364;49.084;9.978;2022-12-11T17:49:24;26.88;;;13.80;;
25437;SDS011;13364;49.084;9.978;2022-12-11T17:51:51;27.55;;;13.32;;